Time;durP1;ratioP1;P1;durP2;ratioP2;P2;SDS_P1;SDS_P2;PMS_P1;PMS_P2;Temp;Humidity;BMP_temperature;BMP_pressure;BME280_temperature;BME280_humidity;BME280_pressure;Samples;Min_cycle;Max_cycle;Signal;HPM_P1;HPM_P2
2022/01/29 00:02:22;;;;;;;;;;;21.10;40.90;;;;;;6307676;28;20023;-40
2022/01/29 00:05:24;;;;;;;;;;;21.10;40.90;;;;;;6302744;28;19938;-41
2022/01/29 00:08:25;;;;;;;;;;;21.00;40.80;;;;;;6309325;28;20058;-43
2022/01/29 00:11:29;;;;;;;;;;;21.40;40.90;;;;;;6297323;28;19931;-41
2022/01/29 00:14:31;;;;;;;;;;;21.90;41.30;;;;;;6314152;28;19931;-41
2022/01/29 00:17:32;;;;;;;;;;;21.00;40.90;;;;;;6313988;28;20034;-41
2022/01/29 00:20:34;;;;;;;;;;;21.00;40.80;;;;;;6315096;28;20882;-41
2022/01/29 00:23:35;;;;;;;;;;;21.10;40.90;;;;;;6315840;28;19927;-41
2022/01/29 00:26:37;;;;;;;;;;;21.20;41.00;;;;;;6311974;27;19958;-41
2022/01/29 00:29:40;;;;;;;;;;;20.90;40.90;;;;;;6318708;28;19928;-40
2022/01/29 00:32:41;;;;;;;;;;;21.50;41.10;;;;;;6314262;28;19936;-41
2022/01/29 00:35:44;;;;;;;;;;;21.00;41.00;;;;;;6319097;28;20026;-41
2022/01/29 00:38:46;;;;;;;;;;;21.00;40.90;;;;;;6300267;28;20038;-43
2022/01/29 00:41:47;;;;;;;;;;;21.20;40.50;;;;;;6309584;28;19931;-41
2022/01/29 00:45:08;;;;;;;;;;;21.60;41.30;;;;;;6302353;28;19931;-41
2022/01/29 00:48:10;;;;;;;;;;;21.00;40.90;;;;;;6297978;28;20826;-40
2022/01/29 00:51:12;;;;;;;;;;;21.00;40.60;;;;;;6291225;28;19966;-41
2022/01/29 00:54:14;;;;;;;;;;;21.60;41.00;;;;;;6313309;28;19938;-41
2022/01/29 00:57:18;;;;;;;;;;;21.30;40.90;;;;;;6308708;28;19932;-41
2022/01/29 01:00:20;;;;;;;;;;;21.10;40.50;;;;;;6312167;28;20697;-41
2022/01/29 01:03:22;;;;;;;;;;;21.50;41.30;;;;;;6318791;28;19970;-41
2022/01/29 01:06:24;;;;;;;;;;;21.10;41.00;;;;;;6317027;28;20067;-41
2022/01/29 01:09:25;;;;;;;;;;;20.90;40.90;;;;;;6309356;28;20071;-41
2022/01/29 01:12:26;;;;;;;;;;;20.90;40.90;;;;;;6315803;28;20016;-40
2022/01/29 01:15:28;;;;;;;;;;;21.40;41.00;;;;;;6319482;28;20038;-40
2022/01/29 01:18:30;;;;;;;;;;;21.00;41.10;;;;;;6314800;28;19973;-42
2022/01/29 01:21:31;;;;;;;;;;;21.10;41.10;;;;;;6314125;28;20010;-40
2022/01/29 01:24:33;;;;;;;;;;;20.90;41.00;;;;;;6313999;27;20047;-41
2022/01/29 01:27:34;;;;;;;;;;;21.00;41.20;;;;;;6314278;28;19998;-41
2022/01/29 01:30:36;;;;;;;;;;;21.00;41.20;;;;;;6316386;28;19927;-41
2022/01/29 01:33:37;;;;;;;;;;;21.10;41.20;;;;;;6317886;28;19934;-41
2022/01/29 01:36:45;;;;;;;;;;;21.40;41.30;;;;;;6317534;28;19966;-41
2022/01/29 01:39:47;;;;;;;;;;;21.60;41.50;;;;;;6319702;28;20065;-41
2022/01/29 01:42:51;;;;;;;;;;;21.00;41.10;;;;;;6314212;28;19928;-41
2022/01/29 01:45:53;;;;;;;;;;;21.30;41.30;;;;;;6309771;28;20064;-43
2022/01/29 01:48:54;;;;;;;;;;;20.90;41.10;;;;;;6310385;28;19931;-41
2022/01/29 01:51:57;;;;;;;;;;;21.20;41.20;;;;;;6302258;28;21248;-41
2022/01/29 01:54:58;;;;;;;;;;;21.10;41.20;;;;;;6311940;28;19928;-42
2022/01/29 01:57:59;;;;;;;;;;;20.90;41.20;;;;;;6312937;28;19963;-41
2022/01/29 02:01:01;;;;;;;;;;;21.10;41.20;;;;;;6301564;28;19932;-41
2022/01/29 02:04:02;;;;;;;;;;;21.00;41.30;;;;;;6309037;28;19937;-42
2022/01/29 02:07:04;;;;;;;;;;;21.30;41.30;;;;;;6309763;28;19966;-42
2022/01/29 02:10:09;;;;;;;;;;;21.10;41.20;;;;;;6314278;28;19974;-41
2022/01/29 02:13:10;;;;;;;;;;;21.20;41.20;;;;;;6302530;28;19980;-41
2022/01/29 02:16:12;;;;;;;;;;;20.90;41.10;;;;;;6314302;28;19935;-41
2022/01/29 02:19:13;;;;;;;;;;;21.10;41.30;;;;;;6308303;28;19931;-42
2022/01/29 02:22:15;;;;;;;;;;;21.40;41.50;;;;;;6315365;28;19985;-41
2022/01/29 02:25:31;;;;;;;;;;;21.10;41.30;;;;;;6312390;28;20008;-41
2022/01/29 02:28:33;;;;;;;;;;;20.70;40.90;;;;;;6306177;28;20801;-41
2022/01/29 02:31:34;;;;;;;;;;;21.40;41.50;;;;;;6305035;28;20058;-41
2022/01/29 02:34:36;;;;;;;;;;;21.40;41.60;;;;;;6300623;28;19934;-43
2022/01/29 02:37:39;;;;;;;;;;;20.90;41.40;;;;;;6321249;27;20641;-41
2022/01/29 02:40:46;;;;;;;;;;;21.00;41.30;;;;;;6314269;28;20025;-41
2022/01/29 02:43:49;;;;;;;;;;;21.00;41.20;;;;;;6300420;28;20051;-40
2022/01/29 02:46:52;;;;;;;;;;;21.40;41.50;;;;;;6303887;28;20336;-41
2022/01/29 02:49:54;;;;;;;;;;;21.20;41.60;;;;;;6310024;28;20159;-40
2022/01/29 02:52:55;;;;;;;;;;;21.00;41.40;;;;;;6305316;28;19956;-40
2022/01/29 02:55:57;;;;;;;;;;;21.20;41.50;;;;;;6313774;28;19979;-40
2022/01/29 02:58:58;;;;;;;;;;;21.00;41.50;;;;;;6307735;28;20158;-41
2022/01/29 03:01:59;;;;;;;;;;;21.30;41.70;;;;;;6310317;28;20481;-42
2022/01/29 03:05:01;;;;;;;;;;;21.00;41.40;;;;;;6312007;28;19932;-40
2022/01/29 03:08:03;;;;;;;;;;;21.20;41.60;;;;;;6295387;28;19961;-41
2022/01/29 03:11:04;;;;;;;;;;;21.00;41.40;;;;;;6308736;28;19967;-41
2022/01/29 03:14:07;;;;;;;;;;;21.00;41.30;;;;;;6294077;28;20776;-40
2022/01/29 03:17:08;;;;;;;;;;;21.30;41.70;;;;;;6307205;28;20250;-40
2022/01/29 03:20:10;;;;;;;;;;;21.20;41.70;;;;;;6298941;28;20273;-41
2022/01/29 03:23:13;;;;;;;;;;;20.90;41.30;;;;;;6291729;28;19979;-40
2022/01/29 03:26:14;;;;;;;;;;;21.20;41.70;;;;;;6309385;28;19967;-41
2022/01/29 03:29:16;;;;;;;;;;;20.90;41.60;;;;;;6291119;28;20753;-41
2022/01/29 03:32:17;;;;;;;;;;;21.10;41.50;;;;;;6305071;28;20378;-41
2022/01/29 03:35:19;;;;;;;;;;;21.40;41.40;;;;;;6309634;28;19927;-40
2022/01/29 03:38:21;;;;;;;;;;;21.00;41.60;;;;;;6310562;28;20164;-40
2022/01/29 03:41:22;;;;;;;;;;;21.10;41.70;;;;;;6308506;28;20356;-41
2022/01/29 03:44:24;;;;;;;;;;;21.40;41.40;;;;;;6316625;28;19955;-40
2022/01/29 03:47:25;;;;;;;;;;;21.40;41.80;;;;;;6310591;28;19966;-40
2022/01/29 03:50:27;;;;;;;;;;;21.30;41.80;;;;;;6309241;28;20050;-40
2022/01/29 03:53:28;;;;;;;;;;;21.10;41.60;;;;;;6306770;28;20156;-40
2022/01/29 03:56:30;;;;;;;;;;;21.10;41.60;;;;;;6315359;28;20201;-41
2022/01/29 03:59:31;;;;;;;;;;;21.70;42.00;;;;;;6310760;28;19959;-40
2022/01/29 04:02:32;;;;;;;;;;;21.00;41.80;;;;;;6307853;28;19962;-40
2022/01/29 04:05:34;;;;;;;;;;;20.90;41.60;;;;;;6314309;28;20273;-41
2022/01/29 04:08:40;;;;;;;;;;;21.40;41.80;;;;;;6295119;28;20012;-41
2022/01/29 04:11:43;;;;;;;;;;;21.00;41.70;;;;;;6306078;28;19932;-41
2022/01/29 04:14:45;;;;;;;;;;;21.00;41.50;;;;;;6309513;28;20050;-41
2022/01/29 04:17:46;;;;;;;;;;;21.50;41.70;;;;;;6310724;28;20046;-41
2022/01/29 04:20:47;;;;;;;;;;;20.80;41.50;;;;;;6316737;28;20248;-40
2022/01/29 04:23:49;;;;;;;;;;;20.90;41.70;;;;;;6312190;28;20577;-40
2022/01/29 04:26:51;;;;;;;;;;;21.10;41.80;;;;;;6316959;28;20014;-41
2022/01/29 04:29:56;;;;;;;;;;;20.90;41.70;;;;;;6301948;28;20046;-41
2022/01/29 04:33:03;;;;;;;;;;;20.80;41.50;;;;;;6311591;28;20108;-41
2022/01/29 04:36:05;;;;;;;;;;;21.00;41.70;;;;;;6310389;28;19970;-40
2022/01/29 04:39:07;;;;;;;;;;;21.30;41.90;;;;;;6309075;28;19967;-40
2022/01/29 04:42:09;;;;;;;;;;;21.30;41.90;;;;;;6297800;28;20697;-41
2022/01/29 04:45:10;;;;;;;;;;;21.30;41.80;;;;;;6304127;28;19928;-40
2022/01/29 04:48:11;;;;;;;;;;;21.50;42.00;;;;;;6311047;28;20002;-41
2022/01/29 04:51:13;;;;;;;;;;;21.00;41.70;;;;;;6318334;28;19974;-40
2022/01/29 04:54:15;;;;;;;;;;;21.00;41.70;;;;;;6312019;28;20047;-41
2022/01/29 04:57:16;;;;;;;;;;;21.50;42.00;;;;;;6321166;28;20185;-41
2022/01/29 05:00:20;;;;;;;;;;;21.20;41.90;;;;;;6320898;28;20046;-40
2022/01/29 05:03:21;;;;;;;;;;;20.80;41.60;;;;;;6296860;28;20046;-41
2022/01/29 05:06:23;;;;;;;;;;;21.00;41.80;;;;;;6305029;28;19932;-41
2022/01/29 05:09:25;;;;;;;;;;;20.90;41.80;;;;;;6323226;28;19933;-41
2022/01/29 05:12:31;;;;;;;;;;;20.80;41.70;;;;;;6320705;28;19943;-41
2022/01/29 05:15:38;;;;;;;;;;;20.80;41.60;;;;;;6307577;28;19935;-40
2022/01/29 05:28:24;;;;;;;;;;;21.10;42.00;;;;;;6308302;28;20246;-41
2022/01/29 05:31:25;;;;;;;;;;;20.90;41.90;;;;;;6305768;28;20374;-41
2022/01/29 05:34:26;;;;;;;;;;;21.20;42.10;;;;;;6306342;28;19927;-41
2022/01/29 05:37:28;;;;;;;;;;;21.30;42.10;;;;;;6308729;28;19928;-42
2022/01/29 05:40:30;;;;;;;;;;;20.90;41.90;;;;;;6292661;28;20038;-40
2022/01/29 05:43:32;;;;;;;;;;;20.90;41.90;;;;;;6301105;28;20150;-40
2022/01/29 05:46:33;;;;;;;;;;;20.90;41.90;;;;;;6308368;28;20691;-41
2022/01/29 05:49:35;;;;;;;;;;;21.40;42.10;;;;;;6307565;28;20328;-41
2022/01/29 05:52:36;;;;;;;;;;;20.90;42.00;;;;;;6303533;28;20399;-40
2022/01/29 05:55:39;;;;;;;;;;;20.90;42.10;;;;;;6297354;28;20646;-41
2022/01/29 05:58:40;;;;;;;;;;;21.20;42.20;;;;;;6312605;28;20006;-41
2022/01/29 06:01:41;;;;;;;;;;;20.90;41.90;;;;;;6313473;28;19932;-41
2022/01/29 06:04:43;;;;;;;;;;;21.10;42.20;;;;;;6305802;28;20193;-41
2022/01/29 06:07:45;;;;;;;;;;;20.90;42.10;;;;;;6310411;28;20247;-42
2022/01/29 06:10:47;;;;;;;;;;;21.00;42.20;;;;;;6302327;28;19998;-40
2022/01/29 06:13:48;;;;;;;;;;;21.00;42.10;;;;;;6310975;28;19931;-40
2022/01/29 06:16:49;;;;;;;;;;;21.00;42.00;;;;;;6309137;28;20489;-41
2022/01/29 06:19:52;;;;;;;;;;;21.50;42.40;;;;;;6310135;28;20671;-40
2022/01/29 06:22:56;;;;;;;;;;;21.30;42.30;;;;;;6309972;28;19928;-41
2022/01/29 06:25:59;;;;;;;;;;;20.80;42.00;;;;;;6308328;28;20046;-41
2022/01/29 06:29:01;;;;;;;;;;;21.10;42.20;;;;;;6291023;28;20416;-40
2022/01/29 06:32:03;;;;;;;;;;;20.80;42.10;;;;;;6305120;28;20042;-40
2022/01/29 06:35:05;;;;;;;;;;;21.20;42.20;;;;;;6306791;28;19971;-41
2022/01/29 06:38:07;;;;;;;;;;;21.30;41.90;;;;;;6304344;28;19935;-41
2022/01/29 06:41:09;;;;;;;;;;;21.00;42.10;;;;;;6305872;28;20124;-41
2022/01/29 06:44:10;;;;;;;;;;;21.40;42.30;;;;;;6309100;28;20433;-41
2022/01/29 06:47:11;;;;;;;;;;;20.80;41.70;;;;;;6300554;28;20046;-41
2022/01/29 06:50:13;;;;;;;;;;;21.30;42.30;;;;;;6289544;28;20017;-40
2022/01/29 06:53:14;;;;;;;;;;;21.00;42.20;;;;;;6302793;28;20416;-41
2022/01/29 06:56:16;;;;;;;;;;;20.90;42.20;;;;;;6307203;28;20630;-41
2022/01/29 06:59:17;;;;;;;;;;;20.80;42.20;;;;;;6299402;28;20675;-41
2022/01/29 07:02:19;;;;;;;;;;;20.90;42.10;;;;;;6303294;28;20096;-41
2022/01/29 07:05:20;;;;;;;;;;;21.00;42.20;;;;;;6302760;28;20374;-40
2022/01/29 07:08:21;;;;;;;;;;;20.90;42.20;;;;;;6303151;28;20151;-41
2022/01/29 07:11:24;;;;;;;;;;;21.00;42.20;;;;;;6304901;28;19928;-40
2022/01/29 07:14:25;;;;;;;;;;;20.90;42.20;;;;;;6308032;28;20400;-41
2022/01/29 07:17:27;;;;;;;;;;;21.20;42.30;;;;;;6277532;28;19927;-42
2022/01/29 07:20:28;;;;;;;;;;;21.30;42.40;;;;;;6302682;28;20062;-40
2022/01/29 07:23:30;;;;;;;;;;;20.80;42.20;;;;;;6305934;27;19932;-41
2022/01/29 07:26:31;;;;;;;;;;;21.10;42.30;;;;;;6296757;28;20300;-41
2022/01/29 07:29:33;;;;;;;;;;;21.00;42.20;;;;;;6296430;28;19931;-41
2022/01/29 07:32:35;;;;;;;;;;;21.00;42.20;;;;;;6303682;28;20336;-41
2022/01/29 07:35:36;;;;;;;;;;;21.20;42.50;;;;;;6296551;28;20739;-43
2022/01/29 07:38:37;;;;;;;;;;;21.00;42.30;;;;;;6295148;28;19986;-43
2022/01/29 07:41:39;;;;;;;;;;;21.00;42.30;;;;;;6310723;28;20026;-42
2022/01/29 07:44:42;;;;;;;;;;;20.80;42.20;;;;;;6306525;28;19993;-40
2022/01/29 07:47:43;;;;;;;;;;;21.20;42.50;;;;;;6307198;28;20415;-40
2022/01/29 07:50:45;;;;;;;;;;;21.40;42.40;;;;;;6301370;28;20050;-42
2022/01/29 07:53:46;;;;;;;;;;;20.90;42.20;;;;;;6308434;28;20105;-41
2022/01/29 07:56:48;;;;;;;;;;;21.00;42.40;;;;;;6299165;28;20724;-41
2022/01/29 07:59:49;;;;;;;;;;;20.90;42.30;;;;;;6296866;28;19938;-41
2022/01/29 08:02:51;;;;;;;;;;;21.00;42.30;;;;;;6294251;28;20054;-41
2022/01/29 08:05:52;;;;;;;;;;;21.20;42.40;;;;;;6311202;28;19939;-41
2022/01/29 08:08:55;;;;;;;;;;;21.20;42.50;;;;;;6317755;28;19933;-42
2022/01/29 08:11:56;;;;;;;;;;;21.20;42.50;;;;;;6319005;28;20608;-40
2022/01/29 08:14:58;;;;;;;;;;;20.80;42.20;;;;;;6312780;28;19927;-41
2022/01/29 08:17:59;;;;;;;;;;;20.90;42.40;;;;;;6309819;28;20466;-41
2022/01/29 08:21:00;;;;;;;;;;;21.40;42.60;;;;;;6316762;28;20035;-42
2022/01/29 08:24:02;;;;;;;;;;;21.10;42.60;;;;;;6317853;28;21030;-40
2022/01/29 08:27:04;;;;;;;;;;;20.80;42.30;;;;;;6318074;28;20001;-41
2022/01/29 08:30:06;;;;;;;;;;;20.90;42.30;;;;;;6312466;28;20038;-41
2022/01/29 08:33:08;;;;;;;;;;;20.90;42.20;;;;;;6310964;28;19965;-41
2022/01/29 08:36:09;;;;;;;;;;;21.20;42.60;;;;;;6318003;27;21851;-40
2022/01/29 08:39:10;;;;;;;;;;;21.00;42.40;;;;;;6318099;28;20047;-40
2022/01/29 08:42:12;;;;;;;;;;;21.10;42.60;;;;;;6320048;28;19927;-41
2022/01/29 08:45:14;;;;;;;;;;;21.20;42.60;;;;;;6317707;28;19957;-42
2022/01/29 08:48:16;;;;;;;;;;;20.90;42.30;;;;;;6319042;28;19927;-40
2022/01/29 08:51:18;;;;;;;;;;;21.30;42.50;;;;;;6322140;28;19932;-41
2022/01/29 08:54:19;;;;;;;;;;;20.80;42.30;;;;;;6317630;28;20022;-40
2022/01/29 08:57:21;;;;;;;;;;;21.10;42.50;;;;;;6292710;28;19935;-41
2022/01/29 09:00:22;;;;;;;;;;;20.80;42.30;;;;;;6305130;28;19953;-40
2022/01/29 09:03:24;;;;;;;;;;;20.90;42.40;;;;;;6304888;28;19927;-41
2022/01/29 09:06:25;;;;;;;;;;;21.20;42.50;;;;;;6298629;28;19939;-41
2022/01/29 09:09:26;;;;;;;;;;;20.90;42.40;;;;;;6299490;28;19928;-41
2022/01/29 09:12:34;;;;;;;;;;;20.90;42.50;;;;;;6309190;28;20029;-41
2022/01/29 09:15:35;;;;;;;;;;;20.90;42.30;;;;;;6315653;28;20453;-41
2022/01/29 09:18:37;;;;;;;;;;;21.20;42.30;;;;;;6310725;28;19938;-41
2022/01/29 09:21:39;;;;;;;;;;;20.90;42.00;;;;;;6289792;28;19934;-41
2022/01/29 09:24:40;;;;;;;;;;;21.30;42.40;;;;;;6319804;28;19939;-40
2022/01/29 09:27:42;;;;;;;;;;;21.00;42.20;;;;;;6308605;28;19995;-41
2022/01/29 09:30:44;;;;;;;;;;;21.40;42.30;;;;;;6296091;28;19947;-40
2022/01/29 09:33:45;;;;;;;;;;;21.00;41.90;;;;;;6288700;28;19977;-41
2022/01/29 09:36:47;;;;;;;;;;;21.00;42.10;;;;;;6314714;28;20068;-41
2022/01/29 09:39:48;;;;;;;;;;;21.40;41.90;;;;;;6308922;28;19928;-40
2022/01/29 09:42:51;;;;;;;;;;;21.10;42.00;;;;;;6310303;28;20724;-41
2022/01/29 09:45:53;;;;;;;;;;;21.20;41.90;;;;;;6297936;28;19939;-41
2022/01/29 09:48:55;;;;;;;;;;;21.10;41.50;;;;;;6309827;28;19927;-41
2022/01/29 09:51:56;;;;;;;;;;;21.80;42.10;;;;;;6312717;28;20022;-40
2022/01/29 09:54:58;;;;;;;;;;;21.60;42.00;;;;;;6308629;28;19928;-41
2022/01/29 09:57:59;;;;;;;;;;;20.90;41.50;;;;;;6294048;28;19928;-41
2022/01/29 10:01:01;;;;;;;;;;;21.20;41.70;;;;;;6296369;28;20643;-41
2022/01/29 10:04:03;;;;;;;;;;;21.70;41.90;;;;;;6302732;28;20310;-43
2022/01/29 10:07:12;;;;;;;;;;;21.50;41.60;;;;;;6284856;28;20042;-41
2022/01/29 10:10:16;;;;;;;;;;;21.40;41.60;;;;;;6304141;28;20277;-41
2022/01/29 10:13:33;;;;;;;;;;;21.40;41.50;;;;;;6289352;28;19995;-41
2022/01/29 10:16:41;;;;;;;;;;;21.60;41.50;;;;;;6294257;28;20004;-41
2022/01/29 10:19:43;;;;;;;;;;;21.90;41.80;;;;;;6305667;28;20340;-41
2022/01/29 10:22:45;;;;;;;;;;;22.10;41.90;;;;;;6298375;28;20375;-41
2022/01/29 10:25:50;;;;;;;;;;;21.90;41.60;;;;;;6296122;28;20454;-41
2022/01/29 10:28:52;;;;;;;;;;;21.40;41.30;;;;;;6302934;28;19979;-41
2022/01/29 10:31:56;;;;;;;;;;;21.50;41.50;;;;;;6306937;28;20056;-42
2022/01/29 10:34:58;;;;;;;;;;;21.70;41.50;;;;;;6300358;28;20732;-40
2022/01/29 10:37:59;;;;;;;;;;;21.90;41.60;;;;;;6305145;28;20239;-41
2022/01/29 10:41:15;;;;;;;;;;;21.50;41.40;;;;;;6314027;28;20030;-41
2022/01/29 10:44:19;;;;;;;;;;;21.50;41.20;;;;;;6311947;28;19966;-40
2022/01/29 10:47:21;;;;;;;;;;;21.90;41.60;;;;;;6302050;28;19935;-41
2022/01/29 10:50:23;;;;;;;;;;;21.60;41.40;;;;;;6303965;28;20065;-41
2022/01/29 10:53:25;;;;;;;;;;;22.10;41.60;;;;;;6312451;28;19927;-42
2022/01/29 10:56:27;;;;;;;;;;;21.50;41.20;;;;;;6317380;28;20043;-41
2022/01/29 10:59:29;;;;;;;;;;;22.00;41.60;;;;;;6318676;28;20046;-41
2022/01/29 11:02:31;;;;;;;;;;;21.70;41.20;;;;;;6300252;28;19963;-40
2022/01/29 11:05:33;;;;;;;;;;;21.70;41.30;;;;;;6315595;28;19967;-41
2022/01/29 11:08:35;;;;;;;;;;;22.00;41.40;;;;;;6311784;28;19931;-41
2022/01/29 11:11:37;;;;;;;;;;;22.10;41.50;;;;;;6313519;28;20615;-41
2022/01/29 11:14:47;;;;;;;;;;;22.20;41.40;;;;;;6318380;28;19938;-42
2022/01/29 11:17:49;;;;;;;;;;;21.70;41.10;;;;;;6305962;28;20062;-42
2022/01/29 11:20:51;;;;;;;;;;;22.20;41.40;;;;;;6312857;28;20050;-41
2022/01/29 11:23:53;;;;;;;;;;;22.60;41.50;;;;;;6317496;28;19938;-42
2022/01/29 11:26:54;;;;;;;;;;;22.10;41.20;;;;;;6316732;28;19927;-41
2022/01/29 11:29:58;;;;;;;;;;;21.90;41.30;;;;;;6312897;28;20104;-41
2022/01/29 11:33:00;;;;;;;;;;;21.90;41.10;;;;;;6305170;28;20821;-42
2022/01/29 11:36:01;;;;;;;;;;;21.90;41.20;;;;;;6316220;28;20050;-41
2022/01/29 11:39:18;;;;;;;;;;;21.90;41.30;;;;;;6297872;28;20058;-41
2022/01/29 11:42:33;;;;;;;;;;;21.80;40.90;;;;;;6297206;28;20567;-41
2022/01/29 11:45:39;;;;;;;;;;;22.10;41.20;;;;;;6300708;28;20043;-41
2022/01/29 11:51:54;;;;;;;;;;;22.00;41.00;;;;;;6284690;28;19927;-41
2022/01/29 11:54:57;;;;;;;;;;;22.50;41.40;;;;;;6307748;28;19931;-41
2022/01/29 11:58:15;;;;;;;;;;;22.10;41.10;;;;;;6297198;28;19976;-41
2022/01/29 12:01:29;;;;;;;;;;;22.10;41.00;;;;;;6296889;28;19927;-41
2022/01/29 12:04:43;;;;;;;;;;;22.00;40.90;;;;;;6308073;28;20284;-41
2022/01/29 12:08:00;;;;;;;;;;;22.00;40.90;;;;;;6315815;28;20785;-41
2022/01/29 12:11:09;;;;;;;;;;;22.00;41.00;;;;;;6296887;28;20810;-41
2022/01/29 12:14:23;;;;;;;;;;;21.90;40.90;;;;;;6300726;28;19931;-40
2022/01/29 12:17:33;;;;;;;;;;;21.90;40.80;;;;;;6314506;28;20718;-41
2022/01/29 12:20:34;;;;;;;;;;;22.00;40.90;;;;;;6302095;28;19932;-41
2022/01/29 12:23:50;;;;;;;;;;;22.20;41.00;;;;;;6305991;28;20037;-40
2022/01/29 12:26:54;;;;;;;;;;;22.60;41.20;;;;;;6289617;28;20030;-42
2022/01/29 12:29:55;;;;;;;;;;;22.40;41.00;;;;;;6307609;28;19927;-41
2022/01/29 12:32:57;;;;;;;;;;;22.90;41.40;;;;;;6296013;28;20056;-41
2022/01/29 12:36:02;;;;;;;;;;;22.30;41.00;;;;;;6272033;28;20198;-41
2022/01/29 12:39:04;;;;;;;;;;;22.00;40.80;;;;;;6283908;28;20157;-41
2022/01/29 12:42:16;;;;;;;;;;;22.00;40.90;;;;;;6304156;28;20466;-41
2022/01/29 12:45:20;;;;;;;;;;;22.50;41.10;;;;;;6291884;28;20331;-41
2022/01/29 12:48:21;;;;;;;;;;;22.10;40.80;;;;;;6288836;28;20259;-41
2022/01/29 12:51:23;;;;;;;;;;;22.00;40.90;;;;;;6303109;28;19932;-41
2022/01/29 12:54:26;;;;;;;;;;;22.00;40.60;;;;;;6297227;28;20117;-40
2022/01/29 12:57:41;;;;;;;;;;;22.20;40.80;;;;;;6295819;28;19932;-41
2022/01/29 13:00:42;;;;;;;;;;;22.30;40.80;;;;;;6292785;28;19942;-41
2022/01/29 13:03:44;;;;;;;;;;;22.50;41.00;;;;;;6298941;28;19932;-41
2022/01/29 13:06:46;;;;;;;;;;;22.30;40.90;;;;;;6297582;28;19989;-41
2022/01/29 13:09:53;;;;;;;;;;;22.20;40.80;;;;;;6298427;28;20383;-41
2022/01/29 13:12:55;;;;;;;;;;;22.40;40.80;;;;;;6292204;28;20480;-41
2022/01/29 13:15:57;;;;;;;;;;;22.10;40.80;;;;;;6301142;28;20438;-41
2022/01/29 13:18:59;;;;;;;;;;;22.50;41.00;;;;;;6298438;28;20680;-41
2022/01/29 13:22:02;;;;;;;;;;;22.20;40.80;;;;;;6296409;28;19936;-41
2022/01/29 13:25:04;;;;;;;;;;;22.70;41.00;;;;;;6304091;28;20021;-41
2022/01/29 13:28:07;;;;;;;;;;;22.50;40.90;;;;;;6303983;28;20743;-41
2022/01/29 13:31:09;;;;;;;;;;;22.20;40.70;;;;;;6285826;28;20046;-41
2022/01/29 13:34:23;;;;;;;;;;;22.10;40.80;;;;;;6302887;28;19927;-41
2022/01/29 13:37:26;;;;;;;;;;;22.40;40.80;;;;;;6301325;28;19974;-41
2022/01/29 13:40:32;;;;;;;;;;;22.20;40.70;;;;;;6296083;28;20473;-41
2022/01/29 13:43:35;;;;;;;;;;;22.70;40.90;;;;;;6286839;28;19935;-41
2022/01/29 13:46:37;;;;;;;;;;;22.40;40.80;;;;;;6298217;28;19928;-41
2022/01/29 13:49:44;;;;;;;;;;;22.60;40.90;;;;;;6303160;28;20383;-43
2022/01/29 13:52:56;;;;;;;;;;;22.40;40.90;;;;;;6301114;28;19927;-41
2022/01/29 13:56:00;;;;;;;;;;;22.60;40.90;;;;;;6304935;28;20683;-42
2022/01/29 13:59:03;;;;;;;;;;;23.00;41.10;;;;;;6302573;28;20042;-41
2022/01/29 14:02:06;;;;;;;;;;;22.70;41.00;;;;;;6303489;28;20504;-41
2022/01/29 14:05:07;;;;;;;;;;;22.20;40.80;;;;;;6299490;28;20538;-41
2022/01/29 14:08:17;;;;;;;;;;;22.40;40.90;;;;;;6298571;28;19953;-41
2022/01/29 14:11:18;;;;;;;;;;;22.40;40.70;;;;;;6303325;28;20012;-41
2022/01/29 14:14:21;;;;;;;;;;;22.80;41.00;;;;;;6293225;28;20514;-41
2022/01/29 14:17:24;;;;;;;;;;;22.40;40.80;;;;;;6296180;28;20292;-41
2022/01/29 14:20:26;;;;;;;;;;;22.30;40.70;;;;;;6299509;28;20469;-41
2022/01/29 14:23:28;;;;;;;;;;;22.30;40.70;;;;;;6290976;28;20345;-41
2022/01/29 14:26:48;;;;;;;;;;;22.60;40.80;;;;;;6276168;28;20246;-41
2022/01/29 14:29:50;;;;;;;;;;;22.80;40.90;;;;;;6292394;28;19994;-41
2022/01/29 14:32:55;;;;;;;;;;;22.70;40.90;;;;;;6292386;27;19931;-41
2022/01/29 14:35:56;;;;;;;;;;;22.30;40.70;;;;;;6295739;28;20294;-41
2022/01/29 14:38:58;;;;;;;;;;;22.70;40.90;;;;;;6291649;28;19938;-41
2022/01/29 14:42:02;;;;;;;;;;;22.30;40.70;;;;;;6292853;28;19932;-41
2022/01/29 14:45:05;;;;;;;;;;;22.60;40.70;;;;;;6274148;28;20019;-41
2022/01/29 14:48:08;;;;;;;;;;;22.50;40.70;;;;;;6277332;28;20580;-41
2022/01/29 14:51:09;;;;;;;;;;;22.10;40.60;;;;;;6294968;28;19935;-41
2022/01/29 14:54:11;;;;;;;;;;;22.30;40.70;;;;;;6274919;28;21015;-42
2022/01/29 14:57:13;;;;;;;;;;;22.80;40.90;;;;;;6296623;28;19955;-41
2022/01/29 15:00:15;;;;;;;;;;;22.90;41.00;;;;;;6292146;28;20480;-41
2022/01/29 15:03:16;;;;;;;;;;;22.70;40.80;;;;;;6297688;28;20485;-40
2022/01/29 15:06:18;;;;;;;;;;;22.30;40.60;;;;;;6297476;28;19973;-40
2022/01/29 15:09:21;;;;;;;;;;;22.70;40.80;;;;;;6297126;28;20396;-41
2022/01/29 15:12:22;;;;;;;;;;;22.50;40.70;;;;;;6279625;28;20045;-41
2022/01/29 15:15:24;;;;;;;;;;;22.90;40.90;;;;;;6294049;28;20806;-41
2022/01/29 15:18:26;;;;;;;;;;;22.60;40.80;;;;;;6294288;28;19959;-41
2022/01/29 15:21:28;;;;;;;;;;;22.70;40.80;;;;;;6291529;28;20202;-41
2022/01/29 15:24:29;;;;;;;;;;;22.40;40.60;;;;;;6277110;28;20008;-41
2022/01/29 15:27:30;;;;;;;;;;;22.80;40.90;;;;;;6294150;28;19994;-41
2022/01/29 15:30:41;;;;;;;;;;;22.80;40.90;;;;;;6294671;28;20135;-41
2022/01/29 15:33:44;;;;;;;;;;;22.80;40.80;;;;;;6288848;28;20418;-41
2022/01/29 15:36:45;;;;;;;;;;;22.30;40.60;;;;;;6293051;28;20085;-41
2022/01/29 15:39:46;;;;;;;;;;;22.30;40.60;;;;;;6290506;28;19963;-41
2022/01/29 15:43:07;;;;;;;;;;;22.70;40.80;;;;;;6279794;28;19928;-41
2022/01/29 15:46:10;;;;;;;;;;;22.50;40.80;;;;;;6288862;28;19946;-41
2022/01/29 15:49:11;;;;;;;;;;;22.90;40.90;;;;;;6292347;28;19986;-40
2022/01/29 15:52:12;;;;;;;;;;;22.80;40.90;;;;;;6295166;28;20425;-41
2022/01/29 15:55:14;;;;;;;;;;;22.50;40.70;;;;;;6293027;28;19932;-41
2022/01/29 15:58:17;;;;;;;;;;;22.40;40.50;;;;;;6279921;28;19932;-41
2022/01/29 16:01:19;;;;;;;;;;;22.90;40.90;;;;;;6296223;28;20422;-41
2022/01/29 16:04:21;;;;;;;;;;;22.70;40.80;;;;;;6292914;28;20504;-41
2022/01/29 16:07:25;;;;;;;;;;;22.40;40.70;;;;;;6293592;28;20050;-41
2022/01/29 16:10:26;;;;;;;;;;;22.60;40.80;;;;;;6296955;28;20654;-41
2022/01/29 16:13:28;;;;;;;;;;;22.50;40.60;;;;;;6273907;28;20042;-41
2022/01/29 16:16:33;;;;;;;;;;;22.50;40.70;;;;;;6292163;28;20232;-41
2022/01/29 16:19:35;;;;;;;;;;;22.50;40.70;;;;;;6273875;28;19932;-41
2022/01/29 16:22:36;;;;;;;;;;;22.80;40.90;;;;;;6294544;28;19990;-41
2022/01/29 16:25:39;;;;;;;;;;;22.70;40.90;;;;;;6293779;28;20031;-42
2022/01/29 16:28:40;;;;;;;;;;;22.60;40.70;;;;;;6294909;28;20431;-41
2022/01/29 16:31:42;;;;;;;;;;;22.90;40.90;;;;;;6295268;28;20238;-41
2022/01/29 16:34:46;;;;;;;;;;;22.50;40.70;;;;;;6288734;28;20360;-41
2022/01/29 16:37:47;;;;;;;;;;;22.30;40.60;;;;;;6289693;28;20074;-41
2022/01/29 16:40:48;;;;;;;;;;;22.40;40.70;;;;;;6281401;28;24513;-41
2022/01/29 16:43:50;;;;;;;;;;;22.40;40.60;;;;;;6291204;28;20637;-41
2022/01/29 16:46:52;;;;;;;;;;;22.50;40.70;;;;;;6286235;28;19938;-41
2022/01/29 16:49:54;;;;;;;;;;;22.80;40.80;;;;;;6280701;28;20062;-41
2022/01/29 16:52:57;;;;;;;;;;;22.80;40.90;;;;;;6286008;28;19935;-41
2022/01/29 16:55:59;;;;;;;;;;;22.40;40.60;;;;;;6286389;28;20047;-41
2022/01/29 16:59:01;;;;;;;;;;;22.90;40.90;;;;;;6293175;28;19927;-41
2022/01/29 17:02:03;;;;;;;;;;;23.20;41.10;;;;;;6283243;28;20062;-41
2022/01/29 17:05:04;;;;;;;;;;;22.50;40.70;;;;;;6288916;28;19932;-41
2022/01/29 17:08:06;;;;;;;;;;;22.50;40.70;;;;;;6291915;28;20394;-42
2022/01/29 17:11:07;;;;;;;;;;;22.50;40.70;;;;;;6288874;28;20017;-42
2022/01/29 17:14:09;;;;;;;;;;;22.30;40.70;;;;;;6289983;28;19932;-41
2022/01/29 17:17:11;;;;;;;;;;;22.60;40.80;;;;;;6288181;28;20492;-41
2022/01/29 17:20:13;;;;;;;;;;;22.30;40.80;;;;;;6290011;28;19990;-41
2022/01/29 17:23:22;;;;;;;;;;;22.50;40.80;;;;;;6265443;28;19932;-41
2022/01/29 17:26:23;;;;;;;;;;;22.60;41.00;;;;;;6287608;28;19980;-41
2022/01/29 17:29:26;;;;;;;;;;;22.50;41.10;;;;;;6289899;28;20364;-41
2022/01/29 17:32:28;;;;;;;;;;;22.50;41.10;;;;;;6293931;28;20606;-41
2022/01/29 17:35:30;;;;;;;;;;;22.40;41.10;;;;;;6291209;28;20046;-41
2022/01/29 17:38:35;;;;;;;;;;;22.30;41.10;;;;;;6297781;28;20332;-41
2022/01/29 17:41:36;;;;;;;;;;;22.10;41.00;;;;;;6297335;28;19928;-41
2022/01/29 17:44:37;;;;;;;;;;;22.20;41.20;;;;;;6294075;28;20230;-40
2022/01/29 17:47:39;;;;;;;;;;;22.30;41.40;;;;;;6292366;28;19932;-41
2022/01/29 17:50:41;;;;;;;;;;;22.40;41.50;;;;;;6284758;28;19982;-41
2022/01/29 17:53:42;;;;;;;;;;;22.20;41.50;;;;;;6279144;28;20457;-41
2022/01/29 17:56:43;;;;;;;;;;;22.20;42.10;;;;;;6276455;28;20305;-41